Time;durP1;ratioP1;P1;durP2;ratioP2;P2;SDS_P1;SDS_P2;PMS_P1;PMS_P2;Temp;Humidity;BMP_temperature;BMP_pressure;BME280_temperature;BME280_humidity;BME280_pressure;Samples;Min_cycle;Max_cycle;Signal;HPM_P1;HPM_P2
2022/10/03 00:00:20;;;;;;;16.30;2.55;;;;;;;9.30;100.00;101349.47;4992524;28;20045;-79
2022/10/03 00:03:16;;;;;;;25.25;4.35;;;;;;;9.35;100.00;101355.22;5016587;28;20349;-78
2022/10/03 00:06:13;;;;;;;11.68;2.63;;;;;;;9.28;100.00;101343.44;5016644;28;20050;-77
2022/10/03 00:08:55;;;;;;;16.38;3.17;;;;;;;9.35;100.00;101349.06;5010410;28;20030;-78
2022/10/03 00:11:42;;;;;;;19.50;3.63;;;;;;;9.42;100.00;101340.34;5027955;28;20044;-77
2022/10/03 00:14:30;;;;;;;20.70;2.65;;;;;;;9.35;100.00;101341.91;5026584;28;20037;-79
2022/10/03 00:17:23;;;;;;;17.55;2.78;;;;;;;9.30;100.00;101336.16;5023637;28;20038;-78
2022/10/03 00:20:07;;;;;;;25.65;3.35;;;;;;;9.27;100.00;101334.59;5008313;28;20033;-77
2022/10/03 00:22:46;;;;;;;22.55;4.22;;;;;;;9.22;100.00;101341.31;5011286;28;20041;-79
2022/10/03 00:25:36;;;;;;;23.52;4.88;;;;;;;9.25;100.00;101347.22;5010540;28;20034;-78
2022/10/03 00:28:46;;;;;;;30.00;3.67;;;;;;;9.20;100.00;101348.59;5006256;28;20095;-77
2022/10/03 00:31:18;;;;;;;29.15;3.67;;;;;;;9.34;100.00;101358.00;5024379;28;20036;-78
2022/10/03 00:34:07;;;;;;;24.88;3.55;;;;;;;9.27;100.00;101358.59;5010117;28;20029;-79
2022/10/03 00:36:43;;;;;;;27.10;3.22;;;;;;;9.30;100.00;101352.97;4993686;28;20045;-77
2022/10/03 00:39:18;;;;;;;25.85;3.15;;;;;;;9.29;100.00;101355.75;5010032;28;20034;-77
2022/10/03 00:42:05;;;;;;;16.67;3.72;;;;;;;9.18;100.00;101358.59;5026286;28;20038;-77
2022/10/03 00:44:52;;;;;;;19.60;3.13;;;;;;;9.11;100.00;101352.97;5017895;28;20045;-78
2022/10/03 00:47:46;;;;;;;20.08;3.47;;;;;;;8.98;100.00;101363.03;5034416;28;20068;-77
2022/10/03 00:50:25;;;;;;;29.27;4.00;;;;;;;8.95;100.00;101355.31;5009655;28;20400;-77
2022/10/03 00:53:03;;;;;;;17.35;2.40;;;;;;;8.93;100.00;101354.59;5009581;28;20037;-78
2022/10/03 00:56:06;;;;;;;17.15;2.88;;;;;;;8.86;100.00;101359.63;5034624;28;20045;-78
2022/10/03 00:58:47;;;;;;;30.67;3.80;;;;;;;8.98;100.00;101363.03;5003638;28;20037;-78
2022/10/03 01:01:27;;;;;;;28.38;3.45;;;;;;;8.97;100.00;101361.34;5037674;28;20065;-77
2022/10/03 01:04:09;;;;;;;26.77;3.40;;;;;;;8.90;100.00;101371.69;5009765;28;20041;-78
2022/10/03 01:06:43;;;;;;;24.40;3.22;;;;;;;8.97;100.00;101372.00;5030450;28;20041;-78
2022/10/03 01:09:08;;;;;;;34.13;3.25;;;;;;;9.02;100.00;101385.75;5026662;28;20033;-78
2022/10/03 01:12:00;;;;;;;33.53;5.10;;;;;;;9.00;100.00;101382.38;5044851;28;20099;-78
2022/10/03 01:14:39;;;;;;;18.90;3.25;;;;;;;9.04;100.00;101386.47;5029834;28;20116;-78
2022/10/03 01:17:22;;;;;;;22.15;3.72;;;;;;;9.03;100.00;101390.09;5017010;28;20073;-77
2022/10/03 01:19:51;;;;;;;17.65;3.70;;;;;;;9.13;100.00;101398.97;5012431;28;20056;-77
2022/10/03 01:22:31;;;;;;;35.42;3.72;;;;;;;9.11;100.00;101400.91;5028463;28;20041;-79
2022/10/03 01:25:05;;;;;;;20.05;4.15;;;;;;;9.00;100.00;101387.69;5012094;28;20040;-78
2022/10/03 01:27:31;;;;;;;29.38;3.58;;;;;;;9.01;100.00;101394.69;4995862;28;20535;-78
2022/10/03 01:33:09;;;;;;;13.85;3.25;;;;;;;8.98;100.00;101387.81;5012258;28;20046;-78
2022/10/03 01:36:01;;;;;;;28.70;3.60;;;;;;;8.91;100.00;101399.16;4995730;28;20041;-78
2022/10/03 01:38:48;;;;;;;19.38;3.20;;;;;;;8.84;100.00;101391.72;5029585;28;20041;-77
2022/10/03 01:41:32;;;;;;;21.88;2.92;;;;;;;8.80;100.00;101400.09;5011665;28;20135;-77
2022/10/03 01:44:27;;;;;;;33.20;5.53;;;;;;;8.98;100.00;101410.97;5024210;28;20064;-78
2022/10/03 01:47:14;;;;;;;32.70;4.83;;;;;;;8.97;100.00;101415.44;4990135;28;20049;-79
2022/10/03 01:49:51;;;;;;;36.13;5.55;;;;;;;8.84;100.00;101415.69;5004705;28;20308;-79
2022/10/03 01:52:23;;;;;;;25.98;3.92;;;;;;;8.75;100.00;101410.31;5011760;28;20044;-78
2022/10/03 01:54:59;;;;;;;24.85;3.17;;;;;;;8.72;100.00;101413.25;4995201;28;20041;-77
2022/10/03 01:57:31;;;;;;;23.42;3.65;;;;;;;8.88;100.00;101421.59;5010964;28;20037;-78
2022/10/03 02:00:07;;;;;;;24.95;2.63;;;;;;;8.82;100.00;101427.44;5011173;28;20041;-77
2022/10/03 02:02:54;;;;;;;30.13;3.92;;;;;;;8.79;100.00;101425.88;5028884;28;20395;-78
2022/10/03 02:06:07;;;;;;;17.52;3.05;;;;;;;8.88;100.00;101432.25;5010708;28;20072;-78
2022/10/03 02:08:51;;;;;;;21.48;3.65;;;;;;;8.85;100.00;101432.53;4966780;28;20818;-78
2022/10/03 02:11:37;;;;;;;30.70;3.90;;;;;;;8.82;100.00;101422.13;4987859;28;20065;-78
2022/10/03 02:14:21;;;;;;;23.80;3.30;;;;;;;8.87;100.00;101420.75;4981855;28;20136;-78
2022/10/03 02:17:06;;;;;;;23.42;4.80;;;;;;;8.88;100.00;101427.75;5000271;28;20034;-78
2022/10/03 02:19:56;;;;;;;26.30;3.83;;;;;;;8.87;100.00;101427.88;4973258;28;20125;-78
2022/10/03 02:22:31;;;;;;;23.02;3.78;;;;;;;8.87;100.00;101430.53;4973441;28;20073;-77
2022/10/03 02:25:06;;;;;;;26.88;3.30;;;;;;;8.83;100.00;101437.13;4990370;28;20366;-77
2022/10/03 02:27:41;;;;;;;23.10;3.58;;;;;;;8.75;100.00;101432.44;4978363;28;20038;-78
2022/10/03 02:30:15;;;;;;;27.55;3.47;;;;;;;8.76;100.00;101431.50;4985936;28;20130;-78
2022/10/03 02:32:59;;;;;;;25.85;3.08;;;;;;;8.74;100.00;101444.09;4994304;28;20579;-78
2022/10/03 02:35:50;;;;;;;26.23;4.22;;;;;;;8.68;100.00;101449.94;4966651;28;20033;-77
2022/10/03 02:38:37;;;;;;;19.95;3.00;;;;;;;8.70;100.00;101457.81;4990937;28;20034;-78
2022/10/03 02:41:17;;;;;;;22.67;3.40;;;;;;;8.73;100.00;101458.38;5037948;28;20033;-78
2022/10/03 02:44:24;;;;;;;20.33;5.22;;;;;;;8.71;100.00;101472.78;4987585;28;20037;-78
2022/10/03 02:47:14;;;;;;;30.23;3.95;;;;;;;8.71;100.00;101468.34;5025724;28;20116;-79
2022/10/03 02:49:57;;;;;;;38.17;4.32;;;;;;;8.67;100.00;101466.91;4986763;28;20128;-78
2022/10/03 02:52:44;;;;;;;30.38;5.35;;;;;;;8.69;100.00;101475.59;5010221;28;20033;-78
2022/10/03 02:55:31;;;;;;;24.33;4.60;;;;;;;8.67;100.00;101480.22;5032131;28;20506;-78
2022/10/03 02:58:15;;;;;;;16.20;3.15;;;;;;;8.65;100.00;101482.16;5028745;28;20406;-77
2022/10/03 03:00:43;;;;;;;29.33;4.82;;;;;;;8.69;100.00;101483.59;5010683;28;20033;-77
2022/10/03 03:03:29;;;;;;;21.38;3.35;;;;;;;8.70;100.00;101477.28;5030106;28;20034;-78
2022/10/03 03:06:18;;;;;;;21.90;3.08;;;;;;;8.76;100.00;101492.72;4994805;28;20061;-76
2022/10/03 03:09:01;;;;;;;21.40;3.47;;;;;;;8.79;100.00;101500.44;5021517;28;20116;-77
2022/10/03 03:11:33;;;;;;;23.88;4.70;;;;;;;8.72;100.00;101490.47;5010629;28;20057;-77
2022/10/03 03:14:27;;;;;;;21.67;3.28;;;;;;;8.70;100.00;101498.56;5027266;28;20037;-77
2022/10/03 03:17:11;;;;;;;32.45;3.53;;;;;;;8.71;100.00;101486.09;5005340;28;20037;-77
2022/10/03 03:20:08;;;;;;;26.35;4.30;;;;;;;8.55;100.00;101484.78;5023566;28;20113;-78
2022/10/03 03:23:09;;;;;;;29.38;3.90;;;;;;;8.60;100.00;101497.69;5020467;28;20052;-78
2022/10/03 03:25:55;;;;;;;20.98;3.83;;;;;;;8.65;100.00;101490.97;5002773;28;20045;-79
2022/10/03 03:28:26;;;;;;;25.90;3.15;;;;;;;8.62;100.00;101491.25;5026683;28;20037;-77
2022/10/03 03:30:58;;;;;;;17.60;2.45;;;;;;;8.64;100.00;101494.63;5026520;28;20037;-77
2022/10/03 03:33:35;;;;;;;28.75;3.33;;;;;;;8.60;100.00;101500.34;5010151;28;20152;-78
2022/10/03 03:36:31;;;;;;;28.83;4.50;;;;;;;8.51;100.00;101503.78;5018719;28;20638;-78
2022/10/03 03:39:23;;;;;;;22.00;3.83;;;;;;;8.41;100.00;101496.59;5022797;28;20043;-78
2022/10/03 03:42:07;;;;;;;25.73;3.80;;;;;;;8.38;100.00;101498.63;5011343;28;20057;-77
2022/10/03 03:44:44;;;;;;;20.70;3.45;;;;;;;8.22;100.00;101489.28;5018206;28;20727;-78
2022/10/03 03:47:19;;;;;;;19.13;2.75;;;;;;;8.21;100.00;101492.91;5007661;28;20025;-78
2022/10/03 03:49:50;;;;;;;29.08;3.45;;;;;;;8.08;100.00;101486.06;5026369;28;20044;-78
2022/10/03 03:52:25;;;;;;;19.52;3.58;;;;;;;8.16;100.00;101495.09;5027287;28;20041;-78
2022/10/03 03:55:17;;;;;;;35.20;3.13;;;;;;;8.23;100.00;101503.44;5010875;28;20045;-78
2022/10/03 03:58:02;;;;;;;24.88;3.85;;;;;;;8.23;100.00;101506.09;5010388;28;20048;-77
2022/10/03 04:00:34;;;;;;;34.72;4.35;;;;;;;8.24;100.00;101507.75;5010322;28;20040;-78
2022/10/03 04:03:02;;;;;;;19.55;2.30;;;;;;;8.12;100.00;101503.47;5010698;28;20076;-77
2022/10/03 04:05:40;;;;;;;37.38;3.90;;;;;;;8.20;100.00;101509.00;5009507;28;20044;-78
2022/10/03 04:08:42;;;;;;;25.63;3.53;;;;;;;8.12;100.00;101514.13;5006662;28;20041;-79
2022/10/03 04:11:45;;;;;;;37.50;5.60;;;;;;;8.30;100.00;101517.91;5016976;28;20060;-79
2022/10/03 04:14:52;;;;;;;28.80;3.25;;;;;;;8.36;100.00;101517.41;5024730;28;20029;-78
2022/10/03 04:20:54;;;;;;;27.83;4.13;;;;;;;8.33;100.00;101522.13;4968224;28;20507;-79
2022/10/03 04:23:20;;;;;;;36.22;4.07;;;;;;;8.37;100.00;101526.22;4984269;28;20196;-78
2022/10/03 04:25:54;;;;;;;24.30;3.15;;;;;;;8.44;100.00;101522.94;4962165;28;20132;-80
2022/10/03 04:28:43;;;;;;;28.88;3.60;;;;;;;8.41;100.00;101525.84;4985519;28;20042;-79
2022/10/03 04:31:20;;;;;;;25.13;3.15;;;;;;;8.36;100.00;101528.03;4966506;28;20038;-80
2022/10/03 04:34:47;;;;;;;36.45;3.60;;;;;;;8.35;100.00;101528.16;4977393;28;20034;-80
2022/10/03 04:37:38;;;;;;;18.60;3.17;;;;;;;8.30;100.00;101528.53;4915359;29;20131;-78
2022/10/03 04:40:21;;;;;;;25.80;2.90;;;;;;;8.37;100.00;101539.50;4969588;28;20136;-78
2022/10/03 04:42:57;;;;;;;24.92;3.47;;;;;;;8.25;100.00;101530.75;4971718;28;20557;-79
2022/10/03 04:45:44;;;;;;;19.00;2.92;;;;;;;8.20;100.00;101523.16;4981274;28;20043;-80
2022/10/03 04:48:47;;;;;;;31.98;4.22;;;;;;;8.14;100.00;101528.13;4970606;28;20065;-79
2022/10/03 04:51:53;;;;;;;25.27;3.17;;;;;;;8.12;100.00;101525.59;4899662;29;20051;-79
2022/10/03 04:54:47;;;;;;;24.83;3.63;;;;;;;8.02;100.00;101520.19;4923283;29;20154;-77
2022/10/03 04:57:31;;;;;;;34.97;4.38;;;;;;;8.00;100.00;101526.59;4924019;29;20744;-79
2022/10/03 05:00:28;;;;;;;25.38;3.92;;;;;;;8.03;100.00;101527.22;4904896;29;20039;-79
2022/10/03 05:03:05;;;;;;;31.20;4.10;;;;;;;8.00;100.00;101531.94;4923238;29;20078;-78
2022/10/03 05:05:49;;;;;;;27.40;3.20;;;;;;;8.10;100.00;101540.00;4931400;29;20142;-79
2022/10/03 05:08:19;;;;;;;18.38;3.38;;;;;;;7.97;100.00;101541.00;4923524;29;20769;-80
2022/10/03 05:11:23;;;;;;;32.67;4.43;;;;;;;8.10;100.00;101534.66;4906915;29;20061;-81
2022/10/03 05:14:10;;;;;;;24.50;3.23;;;;;;;8.11;100.00;101539.03;4912922;29;20545;-77
2022/10/03 05:16:47;;;;;;;39.55;4.63;;;;;;;8.06;100.00;101536.75;4923832;29;20058;-79
2022/10/03 05:19:25;;;;;;;27.77;3.95;;;;;;;8.02;100.00;101535.31;4921173;29;20036;-79
2022/10/03 05:22:19;;;;;;;21.95;4.70;;;;;;;8.03;100.00;101547.66;4960233;28;20099;-79
2022/10/03 05:24:57;;;;;;;38.73;4.43;;;;;;;8.00;100.00;101550.53;5002617;28;20040;-79
2022/10/03 05:27:41;;;;;;;32.60;4.45;;;;;;;8.01;100.00;101550.44;5010988;28;20064;-78
2022/10/03 05:30:15;;;;;;;42.22;4.75;;;;;;;8.06;100.00;101552.72;5025731;28;20037;-78
2022/10/03 05:33:03;;;;;;;28.50;4.20;;;;;;;8.10;100.00;101556.81;5027196;28;20044;-78
2022/10/03 05:35:44;;;;;;;28.98;5.00;;;;;;;8.13;100.00;101567.19;5026896;28;20041;-79
2022/10/03 05:38:15;;;;;;;32.58;5.78;;;;;;;8.25;100.00;101568.00;5008866;28;20417;-79
2022/10/03 05:41:08;;;;;;;32.95;3.63;;;;;;;8.27;100.00;101565.22;4990712;28;20037;-79
2022/10/03 05:43:35;;;;;;;26.25;3.63;;;;;;;8.36;100.00;101573.28;4968536;28;20049;-78
2022/10/03 05:46:35;;;;;;;30.38;4.22;;;;;;;8.33;100.00;101570.00;5021119;28;20022;-79
2022/10/03 05:49:07;;;;;;;36.60;5.30;;;;;;;8.52;100.00;101586.19;5004747;28;20145;-78
2022/10/03 05:52:02;;;;;;;25.17;5.22;;;;;;;8.58;100.00;101580.31;4986741;28;20138;-78
2022/10/03 05:55:05;;;;;;;29.20;4.13;;;;;;;8.73;100.00;101588.81;4988099;28;20046;-78
2022/10/03 05:58:09;;;;;;;26.65;4.32;;;;;;;8.82;100.00;101589.88;4983172;28;20479;-77
2022/10/03 06:01:00;;;;;;;54.90;7.00;;;;;;;8.92;100.00;101596.13;4965291;28;20045;-79
2022/10/03 06:03:50;;;;;;;29.90;5.30;;;;;;;9.06;100.00;101595.78;5010292;28;20129;-80
2022/10/03 06:06:32;;;;;;;26.92;3.67;;;;;;;9.24;100.00;101597.81;4985338;28;20027;-79
2022/10/03 06:09:28;;;;;;;21.15;5.07;;;;;;;9.16;100.00;101589.66;4992294;28;20041;-80
2022/10/03 06:12:09;;;;;;;28.63;5.22;;;;;;;9.06;100.00;101579.78;5004771;28;20037;-78
2022/10/03 06:15:12;;;;;;;22.15;3.72;;;;;;;9.03;100.00;101581.84;4993615;28;20049;-78
2022/10/03 06:18:22;;;;;;;34.30;3.70;;;;;;;9.00;100.00;101582.13;5006288;28;20045;-80
2022/10/03 06:21:31;;;;;;;38.95;4.78;;;;;;;9.09;100.00;101578.69;4965192;28;20482;-80
2022/10/03 06:24:34;;;;;;;22.83;3.90;;;;;;;9.42;100.00;101596.22;5014119;28;20473;-80
2022/10/03 06:27:39;;;;;;;28.08;4.45;;;;;;;9.85;100.00;101596.91;4992823;28;20042;-80
2022/10/03 06:30:36;;;;;;;28.00;3.92;;;;;;;10.16;100.00;101605.69;4985870;28;20038;-79
2022/10/03 06:33:44;;;;;;;20.55;3.40;;;;;;;10.25;100.00;101593.31;5005210;28;20030;-80
2022/10/03 06:36:18;;;;;;;35.67;3.55;;;;;;;10.59;100.00;101590.25;4970266;28;20104;-77
2022/10/03 06:39:05;;;;;;;17.70;4.60;;;;;;;10.83;100.00;101585.28;4975817;28;20215;-76
2022/10/03 06:41:45;;;;;;;17.70;3.45;;;;;;;11.11;100.00;101575.50;5011849;28;20502;-80
2022/10/03 06:44:30;;;;;;;22.35;4.18;;;;;;;11.32;100.00;101567.28;4991329;28;20037;-77
2022/10/03 06:47:17;;;;;;;25.40;3.65;;;;;;;11.41;100.00;101550.34;4990664;28;20040;-80
2022/10/03 06:49:45;;;;;;;27.38;3.75;;;;;;;11.36;100.00;101536.59;4986231;28;20107;-79
2022/10/03 06:52:43;;;;;;;28.13;4.07;;;;;;;11.64;100.00;101530.41;4992701;28;20041;-80
2022/10/03 06:55:30;;;;;;;17.17;3.08;;;;;;;11.98;100.00;101541.31;4999708;28;20104;-78
2022/10/03 06:58:30;;;;;;;28.02;4.32;;;;;;;11.99;100.00;101522.44;4995138;28;20049;-79
2022/10/03 07:01:10;;;;;;;15.90;3.67;;;;;;;11.87;100.00;101512.06;5004530;28;20076;-79
2022/10/03 07:03:48;;;;;;;16.33;3.10;;;;;;;12.24;100.00;101503.88;4998335;28;20553;-77
2022/10/03 07:06:36;;;;;;;21.60;3.55;;;;;;;12.45;100.00;101498.19;5016465;28;20049;-76
2022/10/03 07:09:04;;;;;;;16.80;3.50;;;;;;;12.63;100.00;101493.63;5008288;28;20402;-79
2022/10/03 07:11:33;;;;;;;20.08;3.10;;;;;;;13.11;100.00;101496.75;5004410;28;20041;-76
2022/10/03 07:14:51;;;;;;;17.08;3.17;;;;;;;12.92;100.00;101468.34;4987299;28;20157;-76
2022/10/03 07:17:37;;;;;;;23.08;5.25;;;;;;;12.93;100.00;101458.47;4991474;28;20037;-78
2022/10/03 07:20:09;;;;;;;17.65;3.35;;;;;;;13.21;100.00;101476.00;5005279;28;20042;-78
2022/10/03 07:23:21;;;;;;;19.50;3.63;;;;;;;13.46;100.00;101474.28;5005962;28;20483;-78
2022/10/03 07:26:14;;;;;;;22.38;4.53;;;;;;;13.62;100.00;101456.53;4996921;28;20045;-77
2022/10/03 07:29:06;;;;;;;10.32;2.53;;;;;;;13.73;100.00;101419.47;5005827;28;20056;-78
2022/10/03 07:31:49;;;;;;;20.00;3.35;;;;;;;13.84;100.00;101423.69;4999319;28;20065;-78
2022/10/03 07:34:52;;;;;;;12.45;3.33;;;;;;;14.45;100.00;101432.19;4985447;28;20406;-78
2022/10/03 07:40:36;;;;;;;13.38;1.95;;;;;;;14.61;100.00;101333.75;4991022;28;20111;-77
2022/10/03 07:43:24;;;;;;;16.47;4.03;;;;;;;14.59;100.00;101319.69;4990667;28;20038;-78
2022/10/03 07:46:18;;;;;;;18.40;5.00;;;;;;;14.97;100.00;101340.28;5006255;28;20415;-77
2022/10/03 07:49:26;;;;;;;12.05;2.78;;;;;;;14.59;100.00;101280.22;5000454;28;20487;-77
2022/10/03 07:52:21;;;;;;;14.55;2.30;;;;;;;15.47;100.00;101286.97;4939257;28;20129;-76
2022/10/03 07:55:11;;;;;;;18.73;2.60;;;;;;;15.41;100.00;101261.66;4973835;28;20034;-78
2022/10/03 07:58:09;;;;;;;17.67;3.53;;;;;;;15.43;100.00;101233.72;4991775;28;20049;-77
2022/10/03 08:01:02;;;;;;;14.75;2.35;;;;;;;16.00;100.00;101225.91;4986795;28;20092;-77
2022/10/03 08:04:05;;;;;;;14.15;2.75;;;;;;;15.99;100.00;101173.06;4987181;28;20042;-77
2022/10/03 08:06:44;;;;;;;14.57;2.88;;;;;;;16.23;100.00;101206.09;4987222;28;20061;-77
2022/10/03 08:09:28;;;;;;;18.15;4.00;;;;;;;16.01;100.00;101101.03;5001827;28;20038;-77
2022/10/03 08:12:31;;;;;;;12.52;2.60;;;;;;;16.44;100.00;101137.94;5003332;28;20057;-76
2022/10/03 08:15:20;;;;;;;13.90;2.75;;;;;;;17.09;100.00;101142.31;5004874;28;20038;-77
2022/10/03 08:17:51;;;;;;;13.02;2.38;;;;;;;17.11;100.00;101073.81;5007419;28;20049;-77
2022/10/03 08:20:21;;;;;;;18.48;3.97;;;;;;;16.75;100.00;100930.03;5001882;28;20069;-77
2022/10/03 08:23:17;;;;;;;17.05;3.13;;;;;;;16.98;100.00;100983.69;4999126;28;20136;-76
2022/10/03 08:26:07;;;;;;;15.35;3.05;;;;;;;17.70;100.00;101022.84;5002011;28;20034;-77
2022/10/03 08:28:59;;;;;;;15.55;3.30;;;;;;;17.47;100.00;100984.56;5001233;28;20636;-77
2022/10/03 08:32:01;;;;;;;19.48;3.42;;;;;;;16.98;100.00;101064.63;4921490;29;20055;-77
2022/10/03 08:35:01;;;;;;;31.05;4.38;;;;;;;17.29;100.00;101066.88;4906004;29;20043;-77
2022/10/03 08:37:27;;;;;;;11.70;3.25;;;;;;;17.10;100.00;101086.47;4884201;29;20048;-77
2022/10/03 08:40:08;;;;;;;12.20;2.60;;;;;;;17.04;100.00;100976.66;4883342;29;20059;-76
2022/10/03 08:42:54;;;;;;;15.27;2.45;;;;;;;16.46;100.00;100996.59;4885072;29;20558;-76
2022/10/03 08:45:43;;;;;;;24.95;3.58;;;;;;;15.62;100.00;101152.47;4898309;29;20051;-76
2022/10/03 08:48:42;;;;;;;18.05;2.60;;;;;;;15.85;100.00;101316.63;4871633;29;20523;-76
2022/10/03 08:51:33;;;;;;;16.60;2.95;;;;;;;15.60;100.00;101326.75;4887090;29;20038;-76
2022/10/03 08:54:21;;;;;;;14.75;2.45;;;;;;;16.10;100.00;101440.25;4897797;29;20056;-76
2022/10/03 08:57:05;;;;;;;22.75;2.53;;;;;;;15.59;100.00;101325.91;4884242;29;20196;-76
2022/10/03 08:59:55;;;;;;;18.85;3.55;;;;;;;15.25;100.00;101304.00;4873602;29;20076;-77
2022/10/03 09:02:32;;;;;;;14.73;3.20;;;;;;;15.41;100.00;101454.53;4898289;29;20041;-77
2022/10/03 09:05:21;;;;;;;16.77;2.65;;;;;;;15.07;100.00;101466.47;4882261;29;20040;-76
2022/10/03 09:07:55;;;;;;;15.70;3.00;;;;;;;15.39;100.00;101489.69;4900823;29;20069;-77
2022/10/03 09:10:52;;;;;;;19.23;3.53;;;;;;;15.96;100.00;101485.81;4959620;28;20039;-76
2022/10/03 09:13:32;;;;;;;19.13;2.80;;;;;;;15.93;100.00;101426.94;4966396;28;20053;-77
2022/10/03 09:16:07;;;;;;;18.90;4.00;;;;;;;15.48;100.00;101304.81;4984028;28;20069;-76
2022/10/03 09:18:46;;;;;;;16.90;2.90;;;;;;;15.03;100.00;101406.00;4979154;28;20073;-76
2022/10/03 09:21:17;;;;;;;12.68;2.58;;;;;;;15.71;100.00;101478.91;4996115;28;20120;-77
2022/10/03 09:24:04;;;;;;;14.15;2.38;;;;;;;16.31;100.00;101405.38;5001031;28;20049;-76
2022/10/03 09:26:47;;;;;;;14.32;2.92;;;;;;;16.12;100.00;101183.16;4996340;28;20077;-76
2022/10/03 09:29:50;;;;;;;13.65;2.53;;;;;;;17.06;100.00;101169.66;4998558;28;20045;-76
2022/10/03 09:32:37;;;;;;;13.90;2.63;;;;;;;17.83;100.00;101116.59;4983806;28;20041;-76
2022/10/03 09:35:24;;;;;;;12.73;2.95;;;;;;;17.85;100.00;101021.88;4979832;28;20523;-77
2022/10/03 09:38:09;;;;;;;13.35;3.17;;;;;;;16.88;100.00;101000.25;5000433;28;20092;-76
2022/10/03 09:41:08;;;;;;;11.02;2.92;;;;;;;16.22;100.00;101210.66;4998765;28;20041;-76
2022/10/03 09:43:53;;;;;;;10.80;2.25;;;;;;;17.47;100.00;101103.31;5006718;28;20073;-76
2022/10/03 09:46:24;;;;;;;10.43;2.22;;;;;;;16.99;100.00;100988.06;4997564;28;20503;-76
2022/10/03 09:49:26;;;;;;;13.30;3.00;;;;;;;16.26;100.00;101027.91;4997927;28;20034;-76
2022/10/03 09:52:23;;;;;;;15.88;2.67;;;;;;;16.52;100.00;101247.47;5000473;28;20392;-77
2022/10/03 09:55:07;;;;;;;15.98;2.35;;;;;;;16.80;100.00;101251.16;4998628;28;20077;-76
2022/10/03 09:58:14;;;;;;;12.98;2.15;;;;;;;17.22;100.00;101129.94;5001807;28;20084;-77
2022/10/03 10:00:45;;;;;;;25.15;3.13;;;;;;;17.68;100.00;100949.31;4936655;28;20404;-76
2022/10/03 10:03:51;;;;;;;11.88;2.97;;;;;;;17.63;100.00;100743.06;4997877;28;20377;-76
2022/10/03 10:06:22;;;;;;;;;;;;;;;17.18;100.00;100721.28;4998736;28;20038;-76
2022/10/03 10:09:26;;;;;;;15.10;2.30;;;;;;;17.30;100.00;100814.91;4998536;28;19923;-76
2022/10/03 10:12:29;;;;;;;13.25;2.42;;;;;;;17.10;100.00;100851.78;4982990;28;20057;-76
2022/10/03 10:15:05;;;;;;;15.60;2.67;;;;;;;17.17;100.00;100927.34;4983243;28;20410;-76
2022/10/03 10:17:41;;;;;;;7.90;2.30;;;;;;;17.56;100.00;100912.31;4995015;28;20041;-76
2022/10/03 10:20:38;;;;;;;12.93;2.70;;;;;;;18.06;100.00;100958.75;4995502;28;20034;-77
2022/10/03 10:23:16;;;;;;;17.40;2.67;;;;;;;17.97;100.00;100757.41;4982414;28;20156;-76
2022/10/03 10:26:00;;;;;;;8.30;2.25;;;;;;;16.92;100.00;100660.06;4995381;28;20037;-77
2022/10/03 10:28:53;;;;;;;6.95;2.20;;;;;;;16.83;100.00;100946.09;4984771;28;20174;-77
2022/10/03 10:31:39;;;;;;;18.48;1.80;;;;;;;16.65;100.00;101056.25;4996997;28;20038;-76
2022/10/03 10:34:23;;;;;;;9.35;2.00;;;;;;;16.64;100.00;100974.53;4999845;28;20033;-76
2022/10/03 10:37:07;;;;;;;13.02;1.98;;;;;;;16.61;100.00;101063.06;4999470;28;20140;-76
2022/10/03 10:39:52;;;;;;;11.07;1.67;;;;;;;16.45;100.00;101070.38;4995670;28;20065;-76
2022/10/03 10:42:36;;;;;;;9.30;2.08;;;;;;;15.99;100.00;101027.66;4997952;28;20030;-75
2022/10/03 10:45:34;;;;;;;9.05;2.22;;;;;;;15.90;100.00;100991.13;4996398;28;20525;-76
2022/10/03 10:48:33;;;;;;;8.32;1.98;;;;;;;15.87;100.00;101021.09;4995795;28;20041;-76
2022/10/03 10:51:26;;;;;;;9.57;2.20;;;;;;;16.00;100.00;101067.03;4985942;28;20034;-75
2022/10/03 10:54:36;;;;;;;10.43;3.63;;;;;;;16.34;100.00;101154.44;5053729;28;20457;-77
2022/10/03 10:57:08;;;;;;;8.90;2.13;;;;;;;16.37;100.00;101234.88;5027757;28;20029;-77
2022/10/03 10:59:58;;;;;;;9.88;2.10;;;;;;;16.53;100.00;101285.03;5011625;28;20094;-76
2022/10/03 11:02:45;;;;;;;12.48;2.53;;;;;;;16.77;100.00;101199.44;5010740;28;20038;-77
2022/10/03 11:05:41;;;;;;;6.47;1.85;;;;;;;16.75;100.00;101112.53;5007397;28;20492;-77
2022/10/03 11:08:52;;;;;;;11.77;3.03;;;;;;;17.37;100.00;101119.00;5006770;28;20038;-77
2022/10/03 11:11:36;;;;;;;9.10;1.58;;;;;;;17.44;100.00;101038.91;4994992;28;20049;-77
2022/10/03 11:14:52;;;;;;;7.55;2.30;;;;;;;17.75;100.00;101199.59;5010406;28;20042;-77
2022/10/03 11:17:40;;;;;;;8.20;1.98;;;;;;;17.56;100.00;101064.31;5002876;28;20433;-77
2022/10/03 11:20:39;;;;;;;10.15;1.85;;;;;;;17.77;100.00;101035.50;5007610;28;20035;-77
2022/10/03 11:23:23;;;;;;;14.90;2.25;;;;;;;17.61;100.00;100978.16;5006494;28;20395;-77
2022/10/03 11:26:05;;;;;;;12.25;1.98;;;;;;;17.23;100.00;101261.97;4997503;28;20543;-76
2022/10/03 11:28:51;;;;;;;8.25;1.85;;;;;;;17.24;100.00;101144.88;5011170;28;20030;-77
2022/10/03 11:31:44;;;;;;;15.27;3.60;;;;;;;17.37;100.00;101154.09;5008344;28;20034;-77
2022/10/03 11:34:28;;;;;;;9.07;1.98;;;;;;;17.44;100.00;100971.44;4991702;28;20038;-77
2022/10/03 11:37:14;;;;;;;9.40;2.20;;;;;;;17.55;100.00;101183.31;4986369;28;20042;-76
2022/10/03 11:39:46;;;;;;;9.82;2.42;;;;;;;17.29;100.00;101029.09;5009543;28;20109;-77
2022/10/03 11:42:18;;;;;;;9.43;2.00;;;;;;;17.35;100.00;101200.19;5008990;28;20388;-77
2022/10/03 11:44:57;;;;;;;7.18;2.75;;;;;;;18.24;100.00;101199.47;5009874;28;20510;-77
2022/10/03 11:47:25;;;;;;;8.40;1.92;;;;;;;18.64;100.00;100955.41;5010250;28;20453;-77
2022/10/03 11:50:15;;;;;;;10.77;2.25;;;;;;;18.61;100.00;101058.56;5009259;28;20030;-77
2022/10/03 11:52:49;;;;;;;10.48;1.75;;;;;;;18.12;100.00;100931.75;5009011;28;20113;-77
2022/10/03 11:55:18;;;;;;;5.03;1.40;;;;;;;19.16;100.00;101167.41;4993946;28;20049;-76
2022/10/03 11:58:02;;;;;;;10.20;1.88;;;;;;;18.77;100.00;101048.19;5014818;28;20029;-77
2022/10/03 12:00:34;;;;;;;13.32;2.00;;;;;;;19.47;97.37;100984.50;5026066;28;20046;-76
2022/10/03 12:03:12;;;;;;;12.18;1.73;;;;;;;19.71;91.33;100693.97;5009301;28;20026;-76
2022/10/03 12:09:09;;;;;;;14.70;2.70;;;;;;;19.77;92.21;100846.66;4989442;28;20045;-77
2022/10/03 12:11:52;;;;;;;6.17;1.37;;;;;;;20.22;88.19;100706.31;4985052;28;20096;-76
2022/10/03 12:14:28;;;;;;;9.60;1.63;;;;;;;20.36;85.89;100589.59;4994461;28;20041;-77
2022/10/03 12:17:15;;;;;;;14.27;2.42;;;;;;;19.63;86.44;100548.00;4989292;28;20049;-76
2022/10/03 12:19:58;;;;;;;9.35;2.20;;;;;;;19.11;86.70;100464.50;4987575;28;20145;-77
2022/10/03 12:23:06;;;;;;;9.23;1.80;;;;;;;19.44;89.23;100777.31;4989038;28;20034;-75
2022/10/03 12:25:36;;;;;;;7.32;1.98;;;;;;;19.13;86.81;100477.81;4987800;28;20038;-77
2022/10/03 12:28:04;;;;;;;10.45;1.63;;;;;;;20.06;88.74;100914.78;4987653;28;20046;-76
2022/10/03 12:30:41;;;;;;;14.82;2.15;;;;;;;19.17;86.91;100558.31;4987486;28;20034;-76
2022/10/03 12:33:28;;;;;;;6.88;1.50;;;;;;;18.61;90.13;100653.81;4987649;28;20125;-76
2022/10/03 12:36:04;;;;;;;8.80;2.05;;;;;;;18.18;95.22;100865.22;4987454;28;20042;-75
2022/10/03 12:38:50;;;;;;;9.40;1.40;;;;;;;17.78;100.00;101129.00;4984172;28;20058;-76
2022/10/03 12:41:47;;;;;;;10.25;1.70;;;;;;;17.36;100.00;101123.59;4998250;28;20039;-77
2022/10/03 12:44:32;;;;;;;10.48;2.10;;;;;;;17.01;100.00;101352.81;4990034;28;20064;-76
2022/10/03 12:47:30;;;;;;;8.68;2.00;;;;;;;16.94;100.00;101413.94;4987222;28;20041;-76
2022/10/03 12:50:15;;;;;;;7.15;1.48;;;;;;;17.93;100.00;101332.31;4999040;28;20452;-76
2022/10/03 12:52:59;;;;;;;8.07;1.30;;;;;;;18.49;100.00;101178.13;4987528;28;20400;-77